Terminal Aerodrome Forecast
Issued by NWS

Home | Current Version | Previous Version | Text Only | Print | Product List | Glossary On
Versions: 1 2 3 4 5 6 7 8 9 10 11 12
000
FTUS41 KLWX 290000 RRA
TAFMTN
TAF
KMTN 290000Z 2900/2924 34007KT P6SM SKC
     FM291100 01004KT P6SM FEW250
     FM291700 08008KT P6SM FEW250
      AMD NOT SKED 2902/2912=

USA.gov is the U.S. government's official web portal to all federal, state and local government web resources and services.